createdAt,value
2022-07-29T00:02:25.599Z,100031.44
2022-07-29T00:04:52.352Z,100043.31
2022-07-29T00:07:19.005Z,100035.75
2022-07-29T00:09:51.911Z,100043.16
2022-07-29T00:12:25.532Z,100038.78
2022-07-29T00:14:54.626Z,100029.91
2022-07-29T00:17:21.713Z,100035.78
2022-07-29T00:19:48.373Z,100028.84
2022-07-29T00:22:16.239Z,100027.81
2022-07-29T00:24:42.880Z,100032.34
2022-07-29T00:27:09.561Z,100027.31
2022-07-29T00:29:36.198Z,100031.50
2022-07-29T00:32:03.633Z,100031.94
2022-07-29T00:34:31.218Z,100031.66
2022-07-29T00:36:58.045Z,100038.28
2022-07-29T00:39:24.685Z,100035.56
2022-07-29T00:41:51.537Z,100032.97
2022-07-29T00:44:18.558Z,100036.56
2022-07-29T00:46:45.330Z,100027.13
2022-07-29T00:49:12.339Z,100025.34
2022-07-29T00:51:39.098Z,100031.47
2022-07-29T00:54:06.516Z,100035.16
2022-07-29T00:56:34.228Z,100039.91
2022-07-29T00:59:01.193Z,100039.72
2022-07-29T01:01:28.055Z,100032.91
2022-07-29T01:03:54.879Z,100033.47
2022-07-29T01:06:21.799Z,100039.03
2022-07-29T01:08:49.052Z,100035.97
2022-07-29T01:11:17.292Z,100040.06
2022-07-29T01:13:45.523Z,100037.13
2022-07-29T01:16:19.255Z,100037.69
2022-07-29T01:18:50.023Z,100034.25
2022-07-29T01:21:45.609Z,100036.56
2022-07-29T01:25:07.881Z,100031.31
2022-07-29T01:27:40.215Z,100037.88
2022-07-29T01:30:09.816Z,100034.47
2022-07-29T01:32:39.777Z,100032.97
2022-07-29T01:35:11.793Z,100033.50
2022-07-29T01:37:44.586Z,100022.47
2022-07-29T01:40:19.731Z,100025.81
2022-07-29T01:42:55.381Z,100025.72
2022-07-29T01:45:38.569Z,100036.34
2022-07-29T01:48:25.546Z,100034.38
2022-07-29T01:51:07.097Z,100030.59
2022-07-29T01:53:45.562Z,100034.25
2022-07-29T01:56:14.528Z,100039.13
2022-07-29T01:58:43.425Z,100031.19
2022-07-29T02:01:11.000Z,100033.28
2022-07-29T02:03:39.388Z,100040.47
2022-07-29T02:06:08.395Z,100038.16
2022-07-29T02:08:38.062Z,100033.53
2022-07-29T02:11:07.165Z,100036.19
2022-07-29T02:13:36.891Z,100034.00
2022-07-29T02:16:07.740Z,100033.16
2022-07-29T02:18:38.505Z,100032.31
2022-07-29T02:21:05.599Z,100027.06
2022-07-29T02:23:45.281Z,100023.16
2022-07-29T02:26:23.446Z,100030.84
2022-07-29T02:28:53.203Z,100030.59
2022-07-29T02:31:25.327Z,100032.44
2022-07-29T02:33:54.233Z,100034.50
2022-07-29T02:36:23.954Z,100027.72
2022-07-29T02:38:51.570Z,100024.31
2022-07-29T02:41:30.639Z,100026.63
2022-07-29T02:44:05.575Z,100031.41
2022-07-29T02:46:36.037Z,100027.16
2022-07-29T02:49:25.579Z,100028.81
2022-07-29T02:51:56.543Z,100027.94
2022-07-29T02:55:20.414Z,100028.44
2022-07-29T02:58:17.002Z,100028.81
2022-07-29T03:00:46.032Z,100031.00
2022-07-29T03:03:16.369Z,100031.16
2022-07-29T03:05:43.164Z,100030.59
2022-07-29T03:08:11.890Z,100023.75
2022-07-29T03:10:40.676Z,100023.16
2022-07-29T03:13:09.368Z,100016.34
2022-07-29T03:15:37.127Z,100013.16
2022-07-29T03:18:04.848Z,100019.31
2022-07-29T03:20:31.988Z,100015.59
2022-07-29T03:22:58.769Z,100020.25
2022-07-29T03:25:25.443Z,100018.06
2022-07-29T03:27:52.068Z,100020.47
2022-07-29T03:30:21.759Z,100022.16
2022-07-29T03:32:52.080Z,100019.59
2022-07-29T03:35:20.469Z,100028.81
2022-07-29T03:37:47.768Z,100026.25
2022-07-29T03:40:23.227Z,100021.56
2022-07-29T03:42:52.980Z,100025.91
2022-07-29T03:45:20.889Z,100030.09
2022-07-29T03:47:54.676Z,100034.63
2022-07-29T03:50:23.124Z,100024.91
2022-07-29T03:52:50.805Z,100032.41
2022-07-29T03:55:18.045Z,100028.72
2022-07-29T03:57:46.313Z,100038.47
2022-07-29T04:00:13.474Z,100031.63
2022-07-29T04:02:41.060Z,100038.19
2022-07-29T04:05:13.838Z,100033.34
2022-07-29T04:07:41.553Z,100047.94
2022-07-29T04:10:08.527Z,100038.25
2022-07-29T04:12:35.265Z,100043.09
2022-07-29T04:15:03.739Z,100046.00
2022-07-29T04:17:30.372Z,100042.00
2022-07-29T04:19:57.029Z,100044.09
2022-07-29T04:22:23.660Z,100042.50
2022-07-29T04:24:51.776Z,100039.38
2022-07-29T04:27:18.423Z,100046.97
2022-07-29T04:29:57.067Z,100040.34
2022-07-29T04:32:25.160Z,100035.72
2022-07-29T04:34:52.342Z,100035.44
2022-07-29T04:37:19.151Z,100030.28
2022-07-29T04:39:45.834Z,100039.25
2022-07-29T04:42:12.459Z,100046.28
2022-07-29T04:44:40.023Z,100041.38
2022-07-29T04:47:10.101Z,100043.00
2022-07-29T04:49:39.362Z,100048.41
2022-07-29T04:52:06.787Z,100039.72
2022-07-29T04:54:33.640Z,100044.66
2022-07-29T04:57:00.267Z,100050.59
2022-07-29T04:59:26.909Z,100045.66
2022-07-29T05:01:53.591Z,100049.06
2022-07-29T05:04:20.847Z,100048.84
2022-07-29T05:06:47.645Z,100049.88
2022-07-29T05:09:14.339Z,100053.81
2022-07-29T05:11:40.944Z,100050.59
2022-07-29T05:14:07.573Z,100050.78
2022-07-29T05:16:34.266Z,100050.69
2022-07-29T05:19:00.878Z,100053.44
2022-07-29T05:21:27.527Z,100050.63
2022-07-29T05:23:54.175Z,100048.56
2022-07-29T05:26:20.810Z,100048.13
2022-07-29T05:28:47.454Z,100048.97
2022-07-29T05:31:14.219Z,100048.50
2022-07-29T05:33:44.035Z,100043.97
2022-07-29T05:36:10.965Z,100046.50
2022-07-29T05:38:37.688Z,100042.16
2022-07-29T05:41:07.076Z,100051.75
2022-07-29T05:43:34.177Z,100044.97
2022-07-29T05:46:00.996Z,100047.91
2022-07-29T05:48:28.358Z,100044.47
2022-07-29T05:50:55.035Z,100053.91
2022-07-29T05:53:21.871Z,100053.50
2022-07-29T05:55:49.520Z,100050.81
2022-07-29T05:58:16.600Z,100054.97
2022-07-29T06:00:43.410Z,100054.72
2022-07-29T06:03:10.092Z,100059.72
2022-07-29T06:05:36.734Z,100059.88
2022-07-29T06:08:03.542Z,100059.38
2022-07-29T06:10:30.380Z,100060.47
2022-07-29T06:12:57.033Z,100053.59
2022-07-29T06:15:23.648Z,100054.81
2022-07-29T06:17:59.922Z,100060.59
2022-07-29T06:20:28.868Z,100062.56
2022-07-29T06:22:55.492Z,100061.34
2022-07-29T06:25:22.244Z,100064.44
2022-07-29T06:27:48.926Z,100064.75
2022-07-29T06:30:15.624Z,100061.94
2022-07-29T06:32:43.357Z,100062.44
2022-07-29T06:35:37.949Z,100066.78
2022-07-29T06:37:59.521Z,100073.81
2022-07-29T06:40:26.986Z,100076.28
2022-07-29T06:42:53.598Z,100075.06
2022-07-29T06:45:20.311Z,100070.38
2022-07-29T06:47:46.929Z,100074.97
2022-07-29T06:50:13.572Z,100073.84
2022-07-29T06:52:40.205Z,100075.41
2022-07-29T06:55:07.471Z,100075.19
2022-07-29T06:57:34.206Z,100081.97
2022-07-29T07:00:01.097Z,100070.47
2022-07-29T07:02:27.783Z,100065.81
2022-07-29T07:04:54.716Z,100063.84
2022-07-29T07:07:21.352Z,100067.09
2022-07-29T07:09:48.149Z,100075.88
2022-07-29T07:12:14.820Z,100074.34
2022-07-29T07:14:41.507Z,100076.56
2022-07-29T07:17:08.411Z,100074.34
2022-07-29T07:19:35.044Z,100073.16
2022-07-29T07:22:01.687Z,100070.56
2022-07-29T07:24:30.536Z,100067.03
2022-07-29T07:26:57.157Z,100068.03
2022-07-29T07:29:23.920Z,100066.59
2022-07-29T07:31:50.651Z,100070.63
2022-07-29T07:34:17.613Z,100068.81
2022-07-29T07:36:55.459Z,100065.09
2022-07-29T07:39:22.075Z,100067.97
2022-07-29T07:41:48.751Z,100067.69
2022-07-29T07:44:16.185Z,100065.47
2022-07-29T07:46:42.958Z,100075.47
2022-07-29T07:49:09.660Z,100061.53
2022-07-29T07:51:36.364Z,100067.50
2022-07-29T07:54:03.267Z,100060.13
2022-07-29T07:56:35.052Z,100056.78
2022-07-29T07:59:02.093Z,100068.88
2022-07-29T08:01:28.751Z,100068.13
2022-07-29T08:03:55.465Z,100067.88
2022-07-29T08:06:22.109Z,100056.00
2022-07-29T08:08:48.732Z,100058.47
2022-07-29T08:11:15.350Z,100054.59
2022-07-29T08:13:42.001Z,100055.19
2022-07-29T08:16:09.146Z,100057.13
2022-07-29T08:18:35.862Z,100057.19
2022-07-29T08:21:02.589Z,100059.13
2022-07-29T08:23:45.742Z,100056.88
2022-07-29T08:26:14.819Z,100055.06
2022-07-29T08:28:43.845Z,100057.75
2022-07-29T08:31:10.486Z,100056.22
2022-07-29T08:33:37.141Z,100053.56
2022-07-29T08:36:04.188Z,100060.63
2022-07-29T08:38:30.814Z,100057.22
2022-07-29T08:40:57.853Z,100057.03
2022-07-29T08:43:25.184Z,100051.06
2022-07-29T08:45:52.815Z,100044.31
2022-07-29T08:48:22.654Z,100048.19
2022-07-29T08:50:55.610Z,100049.22
2022-07-29T08:53:23.096Z,100045.03
2022-07-29T08:55:50.910Z,100033.84
2022-07-29T08:58:18.370Z,100038.69
2022-07-29T09:00:53.458Z,100029.09
2022-07-29T09:03:25.483Z,100031.31
2022-07-29T09:05:52.710Z,100039.28
2022-07-29T09:08:19.912Z,100037.75
2022-07-29T09:10:46.640Z,100035.38
2022-07-29T09:13:13.335Z,100037.06
2022-07-29T09:15:41.226Z,100036.72
2022-07-29T09:18:07.873Z,100036.50
2022-07-29T09:20:53.349Z,100039.53
2022-07-29T09:23:23.284Z,100024.81
2022-07-29T09:25:51.307Z,100030.41
2022-07-29T09:28:18.820Z,100026.97
2022-07-29T09:30:59.319Z,100030.56
2022-07-29T09:33:33.496Z,100025.25
2022-07-29T09:36:10.537Z,100020.69
2022-07-29T09:38:37.842Z,100030.56
2022-07-29T09:41:06.844Z,100012.28
2022-07-29T09:43:34.408Z,100013.06
2022-07-29T09:46:14.508Z,100008.53
2022-07-29T09:48:41.382Z,100006.53
2022-07-29T09:51:21.383Z,100002.38
2022-07-29T09:53:48.986Z,99999.28
2022-07-29T09:56:15.868Z,100001.28
2022-07-29T09:58:42.516Z,100000.19
2022-07-29T10:01:09.483Z,99991.25
2022-07-29T10:03:52.556Z,99991.97
2022-07-29T10:06:19.377Z,99992.72
2022-07-29T10:08:46.192Z,99994.59
2022-07-29T10:11:20.081Z,100008.03
2022-07-29T10:13:49.628Z,99990.16
2022-07-29T10:16:17.963Z,99997.91
2022-07-29T10:18:45.615Z,99983.50
2022-07-29T10:21:22.570Z,99988.66
2022-07-29T10:24:01.371Z,99993.41
2022-07-29T10:26:30.066Z,99987.03
2022-07-29T10:28:56.879Z,99981.19
2022-07-29T10:31:32.181Z,99979.81
2022-07-29T10:34:08.064Z,99982.13
2022-07-29T10:36:37.694Z,99976.22
2022-07-29T10:39:22.202Z,99974.63
2022-07-29T10:42:20.012Z,99970.44
2022-07-29T10:44:47.876Z,99970.16
2022-07-29T10:47:28.195Z,99966.84
2022-07-29T10:50:02.369Z,99967.59
2022-07-29T10:52:50.604Z,99968.16
2022-07-29T10:55:37.806Z,99967.16
2022-07-29T10:58:20.250Z,99962.38
2022-07-29T11:00:52.474Z,99950.47
2022-07-29T11:03:52.170Z,99949.41
2022-07-29T11:06:26.729Z,99958.06
2022-07-29T11:09:17.212Z,99942.59
2022-07-29T11:11:51.378Z,99944.69
2022-07-29T11:14:56.755Z,99949.22
2022-07-29T11:17:24.710Z,99953.72
2022-07-29T11:19:52.187Z,99945.09
2022-07-29T11:22:36.559Z,99939.50
2022-07-29T11:25:17.646Z,99932.22
2022-07-29T11:27:45.941Z,99937.09
2022-07-29T11:30:12.638Z,99930.59
2022-07-29T11:32:41.598Z,99927.00
2022-07-29T11:38:28.756Z,99924.13
2022-07-29T11:41:21.468Z,99915.28
2022-07-29T11:43:53.469Z,99917.69
2022-07-29T11:46:49.271Z,99907.69
2022-07-29T11:49:31.528Z,99903.72
2022-07-29T11:51:59.792Z,99899.22
2022-07-29T11:54:57.309Z,99900.22
2022-07-29T11:57:23.080Z,99908.19
2022-07-29T12:02:55.871Z,99902.66
2022-07-29T12:05:37.670Z,99907.72
2022-07-29T12:08:18.134Z,99903.34
2022-07-29T12:10:45.187Z,99901.81
2022-07-29T12:13:12.267Z,99898.56
2022-07-29T12:15:46.083Z,99896.06
2022-07-29T12:18:19.387Z,99892.56
2022-07-29T12:20:47.609Z,99890.78
2022-07-29T12:23:16.248Z,99885.53
2022-07-29T12:25:44.585Z,99891.59
2022-07-29T12:28:16.563Z,99879.97
2022-07-29T12:30:53.837Z,99876.59
2022-07-29T12:33:25.737Z,99881.56
2022-07-29T12:36:07.271Z,99878.97
2022-07-29T12:38:36.480Z,99873.28
2022-07-29T12:41:04.914Z,99871.06
2022-07-29T12:43:32.397Z,99862.47
2022-07-29T12:45:59.115Z,99853.94
2022-07-29T12:48:40.969Z,99852.50
2022-07-29T12:51:09.304Z,99855.59
2022-07-29T12:53:37.244Z,99843.50
2022-07-29T12:56:15.604Z,99856.34
2022-07-29T12:58:52.233Z,99839.53
2022-07-29T13:01:20.486Z,99849.19
2022-07-29T13:03:56.824Z,99845.34
2022-07-29T13:06:32.902Z,99846.22
2022-07-29T13:09:06.174Z,99840.31
2022-07-29T13:11:36.777Z,99834.22
2022-07-29T13:14:06.753Z,99824.59
2022-07-29T13:16:34.018Z,99825.94
2022-07-29T13:19:12.725Z,99818.28
2022-07-29T13:21:40.681Z,99820.09
2022-07-29T13:24:08.386Z,99819.75
2022-07-29T13:26:35.464Z,99816.47
2022-07-29T13:29:02.074Z,99817.78
2022-07-29T13:31:28.760Z,99822.66
2022-07-29T13:33:55.411Z,99818.03
2022-07-29T13:36:22.057Z,99818.88
2022-07-29T13:38:48.711Z,99816.06
2022-07-29T13:41:15.454Z,99811.13
2022-07-29T13:43:44.919Z,99801.13
2022-07-29T13:46:11.632Z,99801.88
2022-07-29T13:48:38.562Z,99796.31
2022-07-29T13:51:05.227Z,99785.16
2022-07-29T13:53:31.938Z,99797.97
2022-07-29T13:55:58.602Z,99791.25
2022-07-29T13:58:25.326Z,99788.94
2022-07-29T14:00:52.005Z,99784.75
2022-07-29T14:03:18.698Z,99781.06
2022-07-29T14:05:45.419Z,99773.72
2022-07-29T14:08:12.222Z,99774.00
2022-07-29T14:10:38.894Z,99769.94
2022-07-29T14:13:05.532Z,99770.19
2022-07-29T14:15:48.951Z,99765.97
2022-07-29T14:18:15.570Z,99768.03
2022-07-29T14:20:42.312Z,99776.88
2022-07-29T14:23:08.921Z,99759.72
2022-07-29T14:25:36.138Z,99759.44
2022-07-29T14:28:06.984Z,99765.53
2022-07-29T14:30:33.728Z,99763.22
2022-07-29T14:33:00.343Z,99762.19
2022-07-29T14:35:27.060Z,99755.91
2022-07-29T14:37:53.743Z,99751.47
2022-07-29T14:40:20.396Z,99743.53
2022-07-29T14:42:47.037Z,99752.53
2022-07-29T14:45:13.681Z,99746.41
2022-07-29T14:47:41.425Z,99748.31
2022-07-29T14:50:09.168Z,99750.59
2022-07-29T14:52:36.175Z,99746.41
2022-07-29T14:55:04.585Z,99745.16
2022-07-29T14:57:31.482Z,99741.16
2022-07-29T14:59:58.147Z,99731.50
2022-07-29T15:02:40.019Z,99726.88
2022-07-29T15:05:11.391Z,99723.69
2022-07-29T15:07:38.079Z,99720.78
2022-07-29T15:10:05.018Z,99724.38
2022-07-29T15:12:34.990Z,99726.66
2022-07-29T15:15:01.610Z,99717.19
2022-07-29T15:17:30.258Z,99718.88
2022-07-29T15:19:56.881Z,99719.47
2022-07-29T15:22:23.556Z,99715.53
2022-07-29T15:24:50.293Z,99710.47
2022-07-29T15:27:16.923Z,99714.72
2022-07-29T15:29:45.087Z,99719.25
2022-07-29T15:32:12.005Z,99711.47
2022-07-29T15:34:39.100Z,99706.88
2022-07-29T15:37:06.218Z,99706.00
2022-07-29T15:39:33.226Z,99711.03
2022-07-29T15:42:00.445Z,99699.59
2022-07-29T15:44:27.370Z,99695.97
2022-07-29T15:46:54.090Z,99705.66
2022-07-29T15:49:20.845Z,99697.09
2022-07-29T15:51:49.555Z,99693.19
2022-07-29T15:54:16.171Z,99693.59
2022-07-29T15:56:42.793Z,99696.75
2022-07-29T15:59:09.425Z,99692.13
2022-07-29T16:01:49.878Z,99679.38
2022-07-29T16:04:16.801Z,99687.72
2022-07-29T16:06:44.968Z,99676.09
2022-07-29T16:09:11.825Z,99683.00
2022-07-29T16:11:38.520Z,99677.59
2022-07-29T16:14:05.443Z,99688.41
2022-07-29T16:16:35.856Z,99684.38
2022-07-29T16:19:03.457Z,99687.16
2022-07-29T16:21:30.194Z,99684.63
2022-07-29T16:23:57.467Z,99696.94
2022-07-29T16:26:24.706Z,99689.59
2022-07-29T16:28:51.326Z,99685.22
2022-07-29T16:31:18.644Z,99678.53
2022-07-29T16:33:54.833Z,99683.91
2022-07-29T16:36:23.139Z,99676.44
2022-07-29T16:38:50.832Z,99670.47
2022-07-29T16:41:17.663Z,99679.41
2022-07-29T16:43:44.518Z,99676.44
2022-07-29T16:46:13.107Z,99679.25
2022-07-29T16:48:45.489Z,99676.72
2022-07-29T16:51:14.277Z,99675.00
2022-07-29T16:53:41.610Z,99680.38
2022-07-29T16:56:11.824Z,99680.00
2022-07-29T16:58:43.618Z,99679.38
2022-07-29T17:01:11.802Z,99682.72
2022-07-29T17:03:38.518Z,99683.69
2022-07-29T17:06:05.201Z,99678.88
2022-07-29T17:08:31.940Z,99670.97
2022-07-29T17:10:58.572Z,99676.03
2022-07-29T17:13:25.217Z,99674.72
2022-07-29T17:15:51.843Z,99669.97
2022-07-29T17:18:18.575Z,99669.09
2022-07-29T17:20:45.276Z,99675.19
2022-07-29T17:23:11.911Z,99680.34
2022-07-29T17:25:38.609Z,99678.09
2022-07-29T17:28:05.309Z,99682.44
2022-07-29T17:30:31.946Z,99679.41
2022-07-29T17:32:58.551Z,99675.38
2022-07-29T17:35:25.224Z,99677.47
2022-07-29T17:37:52.410Z,99678.97
2022-07-29T17:40:19.036Z,99672.56
2022-07-29T17:42:45.745Z,99676.94
2022-07-29T17:45:12.495Z,99677.38
2022-07-29T17:47:39.217Z,99680.53
2022-07-29T17:50:06.066Z,99678.75
2022-07-29T17:52:32.711Z,99673.09
2022-07-29T17:54:59.486Z,99677.09
2022-07-29T17:57:26.211Z,99669.44
2022-07-29T17:59:52.895Z,99676.88
2022-07-29T18:02:19.554Z,99677.66
2022-07-29T18:04:46.263Z,99673.06
2022-07-29T18:07:17.252Z,99676.81
2022-07-29T18:09:43.933Z,99674.97
2022-07-29T18:12:10.772Z,99685.44
2022-07-29T18:14:37.585Z,99680.84
2022-07-29T18:17:04.235Z,99688.78
2022-07-29T18:19:30.855Z,99690.19
2022-07-29T18:22:03.162Z,99687.94
2022-07-29T18:24:31.678Z,99688.19
2022-07-29T18:26:58.540Z,99688.41
2022-07-29T18:29:25.416Z,99689.38
2022-07-29T18:31:52.029Z,99697.97
2022-07-29T18:34:21.313Z,99698.03
2022-07-29T18:36:48.008Z,99703.38
2022-07-29T18:39:20.376Z,99706.25
2022-07-29T18:41:51.879Z,99708.03
2022-07-29T18:44:22.838Z,99708.47
2022-07-29T18:46:50.954Z,99712.25
2022-07-29T18:49:18.015Z,99709.53
2022-07-29T18:51:44.690Z,99716.00
2022-07-29T18:54:11.492Z,99713.28
2022-07-29T18:56:38.199Z,99717.03
2022-07-29T18:59:05.236Z,99719.25
2022-07-29T19:01:32.242Z,99721.44
2022-07-29T19:03:59.473Z,99711.47
2022-07-29T19:06:26.259Z,99720.25
2022-07-29T19:08:53.672Z,99718.56
2022-07-29T19:11:20.380Z,99721.09
2022-07-29T19:13:47.019Z,99719.44
2022-07-29T19:16:13.762Z,99720.44
2022-07-29T19:18:40.973Z,99749.00
2022-07-29T19:21:07.721Z,99736.94
2022-07-29T19:24:06.059Z,99738.44
2022-07-29T19:26:21.523Z,99733.19
2022-07-29T19:28:48.851Z,99740.38
2022-07-29T19:31:16.131Z,99742.44
2022-07-29T19:33:42.810Z,99741.38
2022-07-29T19:36:09.490Z,99741.34
2022-07-29T19:38:36.195Z,99737.53
2022-07-29T19:41:02.814Z,99736.84
2022-07-29T19:43:50.354Z,99738.81
2022-07-29T19:46:16.095Z,99729.63
2022-07-29T19:48:42.780Z,99727.44
2022-07-29T19:51:09.450Z,99723.78
2022-07-29T19:53:36.094Z,99723.75
2022-07-29T19:56:02.742Z,99725.84
2022-07-29T19:58:29.985Z,99727.31
2022-07-29T20:00:56.637Z,99721.75
2022-07-29T20:03:23.285Z,99727.00
2022-07-29T20:05:50.289Z,99726.16
2022-07-29T20:08:17.651Z,99724.25
2022-07-29T20:10:44.555Z,99720.03
2022-07-29T20:13:11.247Z,99729.06
2022-07-29T20:15:37.980Z,99721.03
2022-07-29T20:18:05.144Z,99725.50
2022-07-29T20:20:31.769Z,99727.78
2022-07-29T20:22:58.688Z,99736.34
2022-07-29T20:25:25.816Z,99738.59
2022-07-29T20:27:52.673Z,99744.09
2022-07-29T20:30:20.058Z,99747.22
2022-07-29T20:32:48.123Z,99748.13
2022-07-29T20:35:14.791Z,99748.75
2022-07-29T20:37:55.664Z,99746.59
2022-07-29T20:40:24.756Z,99745.38
2022-07-29T20:42:51.441Z,99730.88
2022-07-29T20:45:18.041Z,99725.41
2022-07-29T20:47:44.671Z,99725.41
2022-07-29T20:50:11.635Z,99730.94
2022-07-29T20:52:38.404Z,99735.47
2022-07-29T20:55:05.573Z,99736.25
2022-07-29T20:57:38.495Z,99746.19
2022-07-29T21:00:07.426Z,99740.16
2022-07-29T21:02:34.297Z,99748.28
2022-07-29T21:05:01.001Z,99748.22
2022-07-29T21:07:27.662Z,99750.72
2022-07-29T21:09:54.399Z,99755.00
2022-07-29T21:12:21.165Z,99752.69
2022-07-29T21:14:47.901Z,99760.56
2022-07-29T21:17:15.997Z,99757.41
2022-07-29T21:19:42.826Z,99759.41
2022-07-29T21:22:09.866Z,99758.09
2022-07-29T21:24:36.539Z,99758.38
2022-07-29T21:27:19.688Z,99760.34
2022-07-29T21:29:47.660Z,99766.88
2022-07-29T21:32:14.373Z,99762.31
2022-07-29T21:34:57.230Z,99760.69
2022-07-29T21:37:24.068Z,99770.00
2022-07-29T21:39:50.808Z,99772.91
2022-07-29T21:42:17.458Z,99784.84
2022-07-29T21:44:44.110Z,99788.47
2022-07-29T21:47:10.749Z,99791.19
2022-07-29T21:49:37.962Z,99788.72
2022-07-29T21:52:05.017Z,99788.53
2022-07-29T21:54:31.830Z,99797.84
2022-07-29T21:56:58.550Z,99793.59
2022-07-29T21:59:27.584Z,99807.38
2022-07-29T22:01:54.284Z,99811.56
2022-07-29T22:04:21.256Z,99815.47
2022-07-29T22:06:47.984Z,99811.03
2022-07-29T22:09:14.593Z,99815.63
2022-07-29T22:11:41.205Z,99819.41
2022-07-29T22:14:08.018Z,99817.66
2022-07-29T22:16:34.709Z,99819.63
2022-07-29T22:19:01.381Z,99819.16
2022-07-29T22:21:27.994Z,99815.91
2022-07-29T22:23:54.634Z,99810.19
2022-07-29T22:26:21.348Z,99815.38
2022-07-29T22:28:48.088Z,99821.38
2022-07-29T22:31:14.755Z,99821.66
2022-07-29T22:33:41.442Z,99818.91
2022-07-29T22:36:08.186Z,99823.25
2022-07-29T22:38:34.826Z,99823.56
2022-07-29T22:41:01.725Z,99817.00
2022-07-29T22:43:30.128Z,99820.56
2022-07-29T22:45:56.769Z,99824.50
2022-07-29T22:48:23.457Z,99824.78
2022-07-29T22:50:50.073Z,99815.69
2022-07-29T22:53:16.682Z,99816.19
2022-07-29T22:55:43.460Z,99821.59
2022-07-29T22:58:10.066Z,99818.63
2022-07-29T23:00:36.782Z,99815.22
2022-07-29T23:03:03.412Z,99814.53
2022-07-29T23:05:30.106Z,99813.75
2022-07-29T23:07:56.718Z,99823.16
2022-07-29T23:10:23.502Z,99822.78
2022-07-29T23:12:50.154Z,99813.06
2022-07-29T23:15:16.840Z,99810.63
2022-07-29T23:17:44.817Z,99807.94
2022-07-29T23:20:11.539Z,99803.69
2022-07-29T23:22:41.965Z,99802.16
2022-07-29T23:25:08.845Z,99800.44
2022-07-29T23:27:36.286Z,99797.63
2022-07-29T23:30:04.840Z,99791.53
2022-07-29T23:32:31.537Z,99792.50
2022-07-29T23:34:58.174Z,99794.47
2022-07-29T23:37:24.770Z,99791.66
2022-07-29T23:39:53.590Z,99794.75
2022-07-29T23:42:20.259Z,99790.09
2022-07-29T23:44:46.952Z,99796.50
2022-07-29T23:47:13.591Z,99792.38
2022-07-29T23:49:40.273Z,99792.50
2022-07-29T23:52:06.963Z,99788.28
2022-07-29T23:54:33.604Z,99782.31
2022-07-29T23:57:00.619Z,99779.78
2022-07-29T23:59:27.371Z,99777.66
